sensor_id;sensor_type;location;lat;lon;timestamp;temperature;humidity
7738;DHT22;29398;45.328;5.558;2024-02-21T00:00:12;7.20;98.80
7738;DHT22;29398;45.328;5.558;2024-02-21T00:01:15;7.20;98.80
7738;DHT22;29398;45.328;5.558;2024-02-21T00:02:17;7.20;98.80
7738;DHT22;29398;45.328;5.558;2024-02-21T00:03:18;7.20;99.00
7738;DHT22;29398;45.328;5.558;2024-02-21T00:04:21;7.20;98.90
7738;DHT22;29398;45.328;5.558;2024-02-21T00:05:22;7.20;98.80
7738;DHT22;29398;45.328;5.558;2024-02-21T00:06:24;7.20;98.90
7738;DHT22;29398;45.328;5.558;2024-02-21T00:07:26;7.20;99.10
7738;DHT22;29398;45.328;5.558;2024-02-21T00:08:28;7.20;98.90
7738;DHT22;29398;45.328;5.558;2024-02-21T00:09:29;7.20;98.90
7738;DHT22;29398;45.328;5.558;2024-02-21T00:10:31;7.20;99.00
7738;DHT22;29398;45.328;5.558;2024-02-21T00:11:34;7.20;99.10
7738;DHT22;29398;45.328;5.558;2024-02-21T00:12:36;7.20;99.10
7738;DHT22;29398;45.328;5.558;2024-02-21T00:13:37;7.10;99.10
7738;DHT22;29398;45.328;5.558;2024-02-21T00:14:38;7.10;99.10
7738;DHT22;29398;45.328;5.558;2024-02-21T00:15:40;7.10;99.20
7738;DHT22;29398;45.328;5.558;2024-02-21T00:16:41;7.10;99.30
7738;DHT22;29398;45.328;5.558;2024-02-21T00:17:44;7.10;99.20
7738;DHT22;29398;45.328;5.558;2024-02-21T00:18:45;7.10;99.30
7738;DHT22;29398;45.328;5.558;2024-02-21T00:19:47;7.10;99.30
7738;DHT22;29398;45.328;5.558;2024-02-21T00:20:48;7.10;99.30
7738;DHT22;29398;45.328;5.558;2024-02-21T00:21:50;7.10;99.50
7738;DHT22;29398;45.328;5.558;2024-02-21T00:22:51;7.10;99.30
7738;DHT22;29398;45.328;5.558;2024-02-21T00:23:53;7.10;99.30
7738;DHT22;29398;45.328;5.558;2024-02-21T00:24:54;7.10;99.60
7738;DHT22;29398;45.328;5.558;2024-02-21T00:25:55;7.10;99.60
7738;DHT22;29398;45.328;5.558;2024-02-21T00:26:58;7.10;99.60
7738;DHT22;29398;45.328;5.558;2024-02-21T00:27:59;7.10;99.80
7738;DHT22;29398;45.328;5.558;2024-02-21T00:29:01;7.10;99.70
7738;DHT22;29398;45.328;5.558;2024-02-21T00:30:03;8.90;99.90
7738;DHT22;29398;45.328;5.558;2024-02-21T00:31:05;7.10;99.70
7738;DHT22;29398;45.328;5.558;2024-02-21T00:32:06;7.10;99.70
7738;DHT22;29398;45.328;5.558;2024-02-21T00:33:08;7.20;99.80
7738;DHT22;29398;45.328;5.558;2024-02-21T00:34:10;7.20;99.90
7738;DHT22;29398;45.328;5.558;2024-02-21T00:35:11;7.10;99.90
7738;DHT22;29398;45.328;5.558;2024-02-21T00:36:14;7.20;99.90
7738;DHT22;29398;45.328;5.558;2024-02-21T00:37:16;7.20;99.90
7738;DHT22;29398;45.328;5.558;2024-02-21T00:38:18;7.20;99.90
7738;DHT22;29398;45.328;5.558;2024-02-21T00:39:19;7.20;99.90
7738;DHT22;29398;45.328;5.558;2024-02-21T00:40:21;7.20;99.90
7738;DHT22;29398;45.328;5.558;2024-02-21T00:41:22;7.20;99.90
7738;DHT22;29398;45.328;5.558;2024-02-21T00:42:26;7.20;99.90
7738;DHT22;29398;45.328;5.558;2024-02-21T00:43:27;7.30;99.90
7738;DHT22;29398;45.328;5.558;2024-02-21T00:44:29;7.30;99.90
7738;DHT22;29398;45.328;5.558;2024-02-21T00:45:30;7.30;99.90
7738;DHT22;29398;45.328;5.558;2024-02-21T00:46:31;7.30;99.90
7738;DHT22;29398;45.328;5.558;2024-02-21T00:47:33;7.40;99.90
7738;DHT22;29398;45.328;5.558;2024-02-21T00:48:34;7.40;99.90
7738;DHT22;29398;45.328;5.558;2024-02-21T00:49:36;7.40;99.90
7738;DHT22;29398;45.328;5.558;2024-02-21T00:50:37;7.40;99.90
7738;DHT22;29398;45.328;5.558;2024-02-21T00:51:39;7.50;99.90
7738;DHT22;29398;45.328;5.558;2024-02-21T00:52:40;7.50;99.90
7738;DHT22;29398;45.328;5.558;2024-02-21T00:53:42;7.50;99.90
7738;DHT22;29398;45.328;5.558;2024-02-21T00:54:43;7.50;99.90
7738;DHT22;29398;45.328;5.558;2024-02-21T00:55:44;7.50;99.90
7738;DHT22;29398;45.328;5.558;2024-02-21T00:56:46;7.50;99.90
7738;DHT22;29398;45.328;5.558;2024-02-21T00:57:49;7.50;99.90
7738;DHT22;29398;45.328;5.558;2024-02-21T00:58:51;7.60;99.90
7738;DHT22;29398;45.328;5.558;2024-02-21T00:59:52;7.60;99.90
7738;DHT22;29398;45.328;5.558;2024-02-21T01:00:53;7.60;99.90
7738;DHT22;29398;45.328;5.558;2024-02-21T01:01:55;7.60;99.90
7738;DHT22;29398;45.328;5.558;2024-02-21T01:02:56;7.60;99.90
7738;DHT22;29398;45.328;5.558;2024-02-21T01:03:58;7.70;99.90
7738;DHT22;29398;45.328;5.558;2024-02-21T01:04:59;7.70;99.90
7738;DHT22;29398;45.328;5.558;2024-02-21T01:06:00;7.70;99.90
7738;DHT22;29398;45.328;5.558;2024-02-21T01:07:02;7.70;99.90
7738;DHT22;29398;45.328;5.558;2024-02-21T01:08:04;7.70;99.90
7738;DHT22;29398;45.328;5.558;2024-02-21T01:09:07;7.80;99.90
7738;DHT22;29398;45.328;5.558;2024-02-21T01:10:08;7.80;99.90
7738;DHT22;29398;45.328;5.558;2024-02-21T01:11:11;7.80;99.90
7738;DHT22;29398;45.328;5.558;2024-02-21T01:12:12;7.80;99.90
7738;DHT22;29398;45.328;5.558;2024-02-21T01:13:15;7.80;99.90
7738;DHT22;29398;45.328;5.558;2024-02-21T01:14:16;7.80;99.90
7738;DHT22;29398;45.328;5.558;2024-02-21T01:15:18;7.80;99.90
7738;DHT22;29398;45.328;5.558;2024-02-21T01:16:20;7.80;99.90
7738;DHT22;29398;45.328;5.558;2024-02-21T01:17:22;7.90;99.90
7738;DHT22;29398;45.328;5.558;2024-02-21T01:18:23;7.90;99.90
7738;DHT22;29398;45.328;5.558;2024-02-21T01:19:25;7.80;99.90
7738;DHT22;29398;45.328;5.558;2024-02-21T01:20:26;7.90;99.90
7738;DHT22;29398;45.328;5.558;2024-02-21T01:21:28;7.90;99.90
7738;DHT22;29398;45.328;5.558;2024-02-21T01:22:29;7.80;99.90
7738;DHT22;29398;45.328;5.558;2024-02-21T01:23:30;7.90;99.90
7738;DHT22;29398;45.328;5.558;2024-02-21T01:24:32;7.80;99.90
7738;DHT22;29398;45.328;5.558;2024-02-21T01:25:33;7.80;99.90
7738;DHT22;29398;45.328;5.558;2024-02-21T01:26:35;7.80;99.70
7738;DHT22;29398;45.328;5.558;2024-02-21T01:27:36;7.80;99.70
7738;DHT22;29398;45.328;5.558;2024-02-21T01:28:40;7.80;99.80
7738;DHT22;29398;45.328;5.558;2024-02-21T01:29:41;7.80;99.90
7738;DHT22;29398;45.328;5.558;2024-02-21T01:30:43;7.80;99.90
7738;DHT22;29398;45.328;5.558;2024-02-21T01:31:44;7.80;99.90
7738;DHT22;29398;45.328;5.558;2024-02-21T01:32:46;7.80;99.90
7738;DHT22;29398;45.328;5.558;2024-02-21T01:33:47;7.80;99.60
7738;DHT22;29398;45.328;5.558;2024-02-21T01:34:49;7.80;99.80
7738;DHT22;29398;45.328;5.558;2024-02-21T01:35:50;7.80;99.60
7738;DHT22;29398;45.328;5.558;2024-02-21T01:36:52;7.80;99.80
7738;DHT22;29398;45.328;5.558;2024-02-21T01:37:53;7.80;99.80
7738;DHT22;29398;45.328;5.558;2024-02-21T01:38:55;7.80;99.80
7738;DHT22;29398;45.328;5.558;2024-02-21T01:39:56;7.70;99.90
7738;DHT22;29398;45.328;5.558;2024-02-21T01:40:57;7.70;99.30
7738;DHT22;29398;45.328;5.558;2024-02-21T01:41:59;7.60;99.60
7738;DHT22;29398;45.328;5.558;2024-02-21T01:43:00;7.60;99.80
7738;DHT22;29398;45.328;5.558;2024-02-21T01:44:04;7.70;99.90
7738;DHT22;29398;45.328;5.558;2024-02-21T01:45:05;7.60;99.80
7738;DHT22;29398;45.328;5.558;2024-02-21T01:46:07;7.60;99.50
7738;DHT22;29398;45.328;5.558;2024-02-21T01:47:08;7.60;99.50
7738;DHT22;29398;45.328;5.558;2024-02-21T01:48:10;7.60;99.70
7738;DHT22;29398;45.328;5.558;2024-02-21T01:49:12;7.60;99.50
7738;DHT22;29398;45.328;5.558;2024-02-21T01:50:15;7.60;99.90
7738;DHT22;29398;45.328;5.558;2024-02-21T01:51:17;7.70;99.80
7738;DHT22;29398;45.328;5.558;2024-02-21T01:52:19;7.70;99.80
7738;DHT22;29398;45.328;5.558;2024-02-21T01:53:23;7.70;99.80
7738;DHT22;29398;45.328;5.558;2024-02-21T01:54:26;7.70;99.80
7738;DHT22;29398;45.328;5.558;2024-02-21T01:55:29;7.70;99.90
7738;DHT22;29398;45.328;5.558;2024-02-21T01:56:31;7.70;99.90
7738;DHT22;29398;45.328;5.558;2024-02-21T01:57:32;7.70;99.90
7738;DHT22;29398;45.328;5.558;2024-02-21T01:58:36;7.70;99.90
7738;DHT22;29398;45.328;5.558;2024-02-21T01:59:39;7.70;99.90
7738;DHT22;29398;45.328;5.558;2024-02-21T02:00:42;7.70;99.90
7738;DHT22;29398;45.328;5.558;2024-02-21T02:01:44;7.70;99.80
7738;DHT22;29398;45.328;5.558;2024-02-21T02:02:48;7.70;99.90
7738;DHT22;29398;45.328;5.558;2024-02-21T02:03:49;7.70;99.90
7738;DHT22;29398;45.328;5.558;2024-02-21T02:04:51;7.70;99.90
7738;DHT22;29398;45.328;5.558;2024-02-21T02:05:53;7.70;99.90
7738;DHT22;29398;45.328;5.558;2024-02-21T02:06:55;7.70;99.90
7738;DHT22;29398;45.328;5.558;2024-02-21T02:07:56;7.70;99.90
7738;DHT22;29398;45.328;5.558;2024-02-21T02:08:59;7.70;99.90
7738;DHT22;29398;45.328;5.558;2024-02-21T02:10:00;7.70;99.90
7738;DHT22;29398;45.328;5.558;2024-02-21T02:11:02;7.70;99.90
7738;DHT22;29398;45.328;5.558;2024-02-21T02:12:04;7.70;99.90
7738;DHT22;29398;45.328;5.558;2024-02-21T02:13:06;7.70;99.90
7738;DHT22;29398;45.328;5.558;2024-02-21T02:14:08;7.70;99.90
7738;DHT22;29398;45.328;5.558;2024-02-21T02:15:11;6.50;99.70
7738;DHT22;29398;45.328;5.558;2024-02-21T02:16:13;7.70;99.90
7738;DHT22;29398;45.328;5.558;2024-02-21T02:17:14;7.70;99.90
7738;DHT22;29398;45.328;5.558;2024-02-21T02:18:19;7.70;99.90
7738;DHT22;29398;45.328;5.558;2024-02-21T02:19:20;7.70;99.90
7738;DHT22;29398;45.328;5.558;2024-02-21T02:20:22;7.70;99.90
7738;DHT22;29398;45.328;5.558;2024-02-21T02:21:29;7.80;99.90
7738;DHT22;29398;45.328;5.558;2024-02-21T02:22:32;7.70;99.90
7738;DHT22;29398;45.328;5.558;2024-02-21T02:23:35;7.80;99.90
7738;DHT22;29398;45.328;5.558;2024-02-21T02:24:37;7.80;99.90
7738;DHT22;29398;45.328;5.558;2024-02-21T02:25:39;7.80;99.90
7738;DHT22;29398;45.328;5.558;2024-02-21T02:26:40;7.70;99.90
7738;DHT22;29398;45.328;5.558;2024-02-21T02:27:43;7.70;99.90
7738;DHT22;29398;45.328;5.558;2024-02-21T02:28:45;7.70;99.90
7738;DHT22;29398;45.328;5.558;2024-02-21T02:29:47;7.70;99.90
7738;DHT22;29398;45.328;5.558;2024-02-21T02:30:48;7.70;99.90
7738;DHT22;29398;45.328;5.558;2024-02-21T02:31:50;7.70;99.90
7738;DHT22;29398;45.328;5.558;2024-02-21T02:32:51;7.70;99.90
7738;DHT22;29398;45.328;5.558;2024-02-21T02:33:52;7.70;99.90
7738;DHT22;29398;45.328;5.558;2024-02-21T02:34:54;7.70;99.90
7738;DHT22;29398;45.328;5.558;2024-02-21T02:35:57;7.70;99.90
7738;DHT22;29398;45.328;5.558;2024-02-21T02:36:59;7.70;99.90
7738;DHT22;29398;45.328;5.558;2024-02-21T02:38:00;7.70;99.90
7738;DHT22;29398;45.328;5.558;2024-02-21T02:39:04;7.70;99.90
7738;DHT22;29398;45.328;5.558;2024-02-21T02:40:06;7.70;99.90
7738;DHT22;29398;45.328;5.558;2024-02-21T02:41:08;7.70;99.90
7738;DHT22;29398;45.328;5.558;2024-02-21T02:42:09;7.70;99.90
7738;DHT22;29398;45.328;5.558;2024-02-21T02:43:11;7.70;99.90
7738;DHT22;29398;45.328;5.558;2024-02-21T02:44:12;7.70;99.90
7738;DHT22;29398;45.328;5.558;2024-02-21T02:45:14;7.70;99.90
7738;DHT22;29398;45.328;5.558;2024-02-21T02:46:16;7.70;99.90
7738;DHT22;29398;45.328;5.558;2024-02-21T02:47:18;7.70;99.90
7738;DHT22;29398;45.328;5.558;2024-02-21T02:48:19;7.70;99.90
7738;DHT22;29398;45.328;5.558;2024-02-21T02:49:21;7.70;99.90
7738;DHT22;29398;45.328;5.558;2024-02-21T02:50:23;7.70;99.90
7738;DHT22;29398;45.328;5.558;2024-02-21T02:51:25;7.60;99.90
7738;DHT22;29398;45.328;5.558;2024-02-21T02:52:26;7.60;99.90
7738;DHT22;29398;45.328;5.558;2024-02-21T02:53:28;7.70;99.90
7738;DHT22;29398;45.328;5.558;2024-02-21T02:54:30;7.60;99.90
7738;DHT22;29398;45.328;5.558;2024-02-21T02:55:32;7.60;99.90
7738;DHT22;29398;45.328;5.558;2024-02-21T02:56:33;7.60;99.90
7738;DHT22;29398;45.328;5.558;2024-02-21T02:57:35;7.60;99.90
7738;DHT22;29398;45.328;5.558;2024-02-21T02:58:37;7.60;99.90
7738;DHT22;29398;45.328;5.558;2024-02-21T02:59:39;7.60;99.90
7738;DHT22;29398;45.328;5.558;2024-02-21T03:00:40;7.60;99.90
7738;DHT22;29398;45.328;5.558;2024-02-21T03:01:42;7.60;99.90
7738;DHT22;29398;45.328;5.558;2024-02-21T03:02:44;7.60;99.90
7738;DHT22;29398;45.328;5.558;2024-02-21T03:03:47;7.60;99.90
7738;DHT22;29398;45.328;5.558;2024-02-21T03:04:48;7.60;99.90
7738;DHT22;29398;45.328;5.558;2024-02-21T03:05:50;7.60;99.90
7738;DHT22;29398;45.328;5.558;2024-02-21T03:06:51;7.60;99.90
7738;DHT22;29398;45.328;5.558;2024-02-21T03:07:53;7.60;99.90
7738;DHT22;29398;45.328;5.558;2024-02-21T03:08:54;7.60;99.90
7738;DHT22;29398;45.328;5.558;2024-02-21T03:09:58;7.60;99.90
7738;DHT22;29398;45.328;5.558;2024-02-21T03:10:59;7.60;99.90
7738;DHT22;29398;45.328;5.558;2024-02-21T03:12:01;7.60;99.90
7738;DHT22;29398;45.328;5.558;2024-02-21T03:13:03;7.60;99.90
7738;DHT22;29398;45.328;5.558;2024-02-21T03:14:05;7.60;99.90
7738;DHT22;29398;45.328;5.558;2024-02-21T03:15:07;7.60;99.90
7738;DHT22;29398;45.328;5.558;2024-02-21T03:16:09;7.60;99.90
7738;DHT22;29398;45.328;5.558;2024-02-21T03:17:10;7.60;99.90
7738;DHT22;29398;45.328;5.558;2024-02-21T03:18:12;7.60;99.90
7738;DHT22;29398;45.328;5.558;2024-02-21T03:19:13;7.60;99.90
7738;DHT22;29398;45.328;5.558;2024-02-21T03:20:15;7.60;99.90
7738;DHT22;29398;45.328;5.558;2024-02-21T03:21:16;7.60;99.90
7738;DHT22;29398;45.328;5.558;2024-02-21T03:22:18;7.60;99.90
7738;DHT22;29398;45.328;5.558;2024-02-21T03:23:19;7.50;99.90
7738;DHT22;29398;45.328;5.558;2024-02-21T03:24:22;7.50;99.90
7738;DHT22;29398;45.328;5.558;2024-02-21T03:25:24;7.50;99.90
7738;DHT22;29398;45.328;5.558;2024-02-21T03:26:26;7.50;99.90
7738;DHT22;29398;45.328;5.558;2024-02-21T03:27:27;7.50;99.90
7738;DHT22;29398;45.328;5.558;2024-02-21T03:28:29;7.50;99.90
7738;DHT22;29398;45.328;5.558;2024-02-21T03:29:30;7.50;99.90
7738;DHT22;29398;45.328;5.558;2024-02-21T03:30:31;7.50;99.90
7738;DHT22;29398;45.328;5.558;2024-02-21T03:31:34;7.50;99.90
7738;DHT22;29398;45.328;5.558;2024-02-21T03:32:36;7.40;99.90
7738;DHT22;29398;45.328;5.558;2024-02-21T03:33:39;7.40;99.90
7738;DHT22;29398;45.328;5.558;2024-02-21T03:34:41;7.40;99.90
7738;DHT22;29398;45.328;5.558;2024-02-21T03:35:43;7.40;99.90
7738;DHT22;29398;45.328;5.558;2024-02-21T03:36:44;7.40;99.90
7738;DHT22;29398;45.328;5.558;2024-02-21T03:37:46;7.30;99.90
7738;DHT22;29398;45.328;5.558;2024-02-21T03:38:47;7.30;99.90
7738;DHT22;29398;45.328;5.558;2024-02-21T03:39:48;7.30;99.90
7738;DHT22;29398;45.328;5.558;2024-02-21T03:40:51;7.30;99.90
7738;DHT22;29398;45.328;5.558;2024-02-21T03:41:53;7.20;99.90
7738;DHT22;29398;45.328;5.558;2024-02-21T03:42:55;7.20;99.90
7738;DHT22;29398;45.328;5.558;2024-02-21T03:43:56;7.10;99.90
7738;DHT22;29398;45.328;5.558;2024-02-21T03:44:58;7.10;99.90
7738;DHT22;29398;45.328;5.558;2024-02-21T03:45:59;7.20;99.90
7738;DHT22;29398;45.328;5.558;2024-02-21T03:47:02;7.10;99.90
7738;DHT22;29398;45.328;5.558;2024-02-21T03:48:04;7.10;99.90
7738;DHT22;29398;45.328;5.558;2024-02-21T03:49:06;7.00;99.90
7738;DHT22;29398;45.328;5.558;2024-02-21T03:50:08;7.00;99.90
7738;DHT22;29398;45.328;5.558;2024-02-21T03:51:10;7.00;99.90
7738;DHT22;29398;45.328;5.558;2024-02-21T03:52:11;7.00;99.90
7738;DHT22;29398;45.328;5.558;2024-02-21T03:53:13;7.10;99.90
7738;DHT22;29398;45.328;5.558;2024-02-21T03:54:14;7.10;99.90
7738;DHT22;29398;45.328;5.558;2024-02-21T03:55:16;7.10;99.90
7738;DHT22;29398;45.328;5.558;2024-02-21T03:56:18;7.10;99.90
7738;DHT22;29398;45.328;5.558;2024-02-21T03:57:20;7.10;99.90
7738;DHT22;29398;45.328;5.558;2024-02-21T03:58:21;7.00;99.90
7738;DHT22;29398;45.328;5.558;2024-02-21T03:59:22;7.10;99.90
7738;DHT22;29398;45.328;5.558;2024-02-21T04:00:25;7.00;99.90
7738;DHT22;29398;45.328;5.558;2024-02-21T04:01:26;7.00;99.90
7738;DHT22;29398;45.328;5.558;2024-02-21T04:02:28;7.00;99.90
7738;DHT22;29398;45.328;5.558;2024-02-21T04:03:30;7.00;99.90
7738;DHT22;29398;45.328;5.558;2024-02-21T04:04:32;7.00;99.90
7738;DHT22;29398;45.328;5.558;2024-02-21T04:05:33;7.00;99.90
7738;DHT22;29398;45.328;5.558;2024-02-21T04:06:35;7.00;99.90
7738;DHT22;29398;45.328;5.558;2024-02-21T04:07:37;6.90;99.90
7738;DHT22;29398;45.328;5.558;2024-02-21T04:08:39;6.90;99.90
7738;DHT22;29398;45.328;5.558;2024-02-21T04:09:40;6.90;99.90
7738;DHT22;29398;45.328;5.558;2024-02-21T04:10:42;6.90;99.90
7738;DHT22;29398;45.328;5.558;2024-02-21T04:11:44;6.90;99.90
7738;DHT22;29398;45.328;5.558;2024-02-21T04:12:47;6.90;99.90
7738;DHT22;29398;45.328;5.558;2024-02-21T04:13:51;6.90;99.90
7738;DHT22;29398;45.328;5.558;2024-02-21T04:14:53;6.90;99.90
7738;DHT22;29398;45.328;5.558;2024-02-21T04:15:54;6.80;99.90
7738;DHT22;29398;45.328;5.558;2024-02-21T04:16:55;6.90;99.90
7738;DHT22;29398;45.328;5.558;2024-02-21T04:17:56;6.90;99.90
7738;DHT22;29398;45.328;5.558;2024-02-21T04:18:58;6.90;99.90
7738;DHT22;29398;45.328;5.558;2024-02-21T04:20:03;6.90;99.90
7738;DHT22;29398;45.328;5.558;2024-02-21T04:21:06;6.90;99.90
7738;DHT22;29398;45.328;5.558;2024-02-21T04:22:08;6.90;99.90
7738;DHT22;29398;45.328;5.558;2024-02-21T04:23:09;6.90;99.90
7738;DHT22;29398;45.328;5.558;2024-02-21T04:24:11;6.90;99.90
7738;DHT22;29398;45.328;5.558;2024-02-21T04:25:12;6.90;99.90
7738;DHT22;29398;45.328;5.558;2024-02-21T04:26:14;6.90;99.90
7738;DHT22;29398;45.328;5.558;2024-02-21T04:27:16;6.80;99.90
7738;DHT22;29398;45.328;5.558;2024-02-21T04:28:18;6.80;99.90
7738;DHT22;29398;45.328;5.558;2024-02-21T04:29:20;6.80;99.90
7738;DHT22;29398;45.328;5.558;2024-02-21T04:30:22;6.80;99.90
7738;DHT22;29398;45.328;5.558;2024-02-21T04:31:23;6.80;99.90
7738;DHT22;29398;45.328;5.558;2024-02-21T04:32:25;6.80;99.90
7738;DHT22;29398;45.328;5.558;2024-02-21T04:33:28;6.80;99.90
7738;DHT22;29398;45.328;5.558;2024-02-21T04:34:30;6.80;99.90
7738;DHT22;29398;45.328;5.558;2024-02-21T04:35:31;6.70;99.90
7738;DHT22;29398;45.328;5.558;2024-02-21T04:36:33;6.70;99.90
7738;DHT22;29398;45.328;5.558;2024-02-21T04:37:35;6.80;99.90
7738;DHT22;29398;45.328;5.558;2024-02-21T04:38:36;6.80;99.90
7738;DHT22;29398;45.328;5.558;2024-02-21T04:39:40;6.80;99.90
7738;DHT22;29398;45.328;5.558;2024-02-21T04:40:41;6.80;99.90
7738;DHT22;29398;45.328;5.558;2024-02-21T04:41:43;6.80;99.90
7738;DHT22;29398;45.328;5.558;2024-02-21T04:42:46;6.80;99.90
7738;DHT22;29398;45.328;5.558;2024-02-21T04:43:48;6.80;99.90
7738;DHT22;29398;45.328;5.558;2024-02-21T04:44:50;6.80;99.90
7738;DHT22;29398;45.328;5.558;2024-02-21T04:45:51;6.80;99.90
7738;DHT22;29398;45.328;5.558;2024-02-21T04:46:57;6.80;99.90
7738;DHT22;29398;45.328;5.558;2024-02-21T04:47:58;7.60;99.90
7738;DHT22;29398;45.328;5.558;2024-02-21T04:49:00;6.80;99.90
7738;DHT22;29398;45.328;5.558;2024-02-21T04:50:01;6.80;99.90
7738;DHT22;29398;45.328;5.558;2024-02-21T04:51:03;6.80;99.90
7738;DHT22;29398;45.328;5.558;2024-02-21T04:52:05;6.70;99.90
7738;DHT22;29398;45.328;5.558;2024-02-21T04:53:07;6.70;99.90
7738;DHT22;29398;45.328;5.558;2024-02-21T04:54:08;6.70;99.90
7738;DHT22;29398;45.328;5.558;2024-02-21T04:55:09;6.70;99.90
7738;DHT22;29398;45.328;5.558;2024-02-21T04:56:11;6.70;99.90
7738;DHT22;29398;45.328;5.558;2024-02-21T04:57:12;6.70;99.90
7738;DHT22;29398;45.328;5.558;2024-02-21T04:58:19;6.70;99.90
7738;DHT22;29398;45.328;5.558;2024-02-21T04:59:21;6.70;99.90
7738;DHT22;29398;45.328;5.558;2024-02-21T05:00:22;6.70;99.90
7738;DHT22;29398;45.328;5.558;2024-02-21T05:01:24;6.70;99.90
7738;DHT22;29398;45.328;5.558;2024-02-21T05:02:25;6.70;99.90
7738;DHT22;29398;45.328;5.558;2024-02-21T05:03:27;6.70;99.90
7738;DHT22;29398;45.328;5.558;2024-02-21T05:04:29;6.70;99.90
7738;DHT22;29398;45.328;5.558;2024-02-21T05:05:30;6.70;99.90
7738;DHT22;29398;45.328;5.558;2024-02-21T05:06:32;6.70;99.90
7738;DHT22;29398;45.328;5.558;2024-02-21T05:07:34;6.70;99.90
7738;DHT22;29398;45.328;5.558;2024-02-21T05:08:37;6.60;99.90
7738;DHT22;29398;45.328;5.558;2024-02-21T05:09:38;6.60;99.90
7738;DHT22;29398;45.328;5.558;2024-02-21T05:10:40;6.60;99.90
7738;DHT22;29398;45.328;5.558;2024-02-21T05:11:41;6.60;99.90
7738;DHT22;29398;45.328;5.558;2024-02-21T05:12:43;6.60;99.90
7738;DHT22;29398;45.328;5.558;2024-02-21T05:13:45;6.60;99.90
7738;DHT22;29398;45.328;5.558;2024-02-21T05:14:47;6.60;99.90
7738;DHT22;29398;45.328;5.558;2024-02-21T05:15:48;6.60;99.90
7738;DHT22;29398;45.328;5.558;2024-02-21T05:16:51;6.60;99.90
7738;DHT22;29398;45.328;5.558;2024-02-21T05:17:52;6.60;99.90
7738;DHT22;29398;45.328;5.558;2024-02-21T05:18:54;6.60;99.90
7738;DHT22;29398;45.328;5.558;2024-02-21T05:19:55;6.70;99.90
7738;DHT22;29398;45.328;5.558;2024-02-21T05:20:57;6.70;99.90
7738;DHT22;29398;45.328;5.558;2024-02-21T05:21:59;6.70;99.90
7738;DHT22;29398;45.328;5.558;2024-02-21T05:23:01;6.70;99.90
7738;DHT22;29398;45.328;5.558;2024-02-21T05:24:03;6.80;99.90
7738;DHT22;29398;45.328;5.558;2024-02-21T05:25:05;6.80;99.90
7738;DHT22;29398;45.328;5.558;2024-02-21T05:26:07;6.80;99.90
7738;DHT22;29398;45.328;5.558;2024-02-21T05:27:08;6.80;99.90
7738;DHT22;29398;45.328;5.558;2024-02-21T05:28:10;6.80;99.90
7738;DHT22;29398;45.328;5.558;2024-02-21T05:29:13;6.90;99.90
7738;DHT22;29398;45.328;5.558;2024-02-21T05:30:15;6.90;99.90
7738;DHT22;29398;45.328;5.558;2024-02-21T05:31:17;6.90;99.90
7738;DHT22;29398;45.328;5.558;2024-02-21T05:32:19;6.90;99.90
7738;DHT22;29398;45.328;5.558;2024-02-21T05:33:20;7.00;99.90
7738;DHT22;29398;45.328;5.558;2024-02-21T05:34:22;7.00;99.90
7738;DHT22;29398;45.328;5.558;2024-02-21T05:35:26;7.00;99.90
7738;DHT22;29398;45.328;5.558;2024-02-21T05:36:28;7.00;99.90
7738;DHT22;29398;45.328;5.558;2024-02-21T05:37:29;7.00;99.90
7738;DHT22;29398;45.328;5.558;2024-02-21T05:38:31;7.10;99.90
7738;DHT22;29398;45.328;5.558;2024-02-21T05:39:32;7.00;99.90
7738;DHT22;29398;45.328;5.558;2024-02-21T05:40:34;7.10;99.90
7738;DHT22;29398;45.328;5.558;2024-02-21T05:41:35;7.10;99.90
7738;DHT22;29398;45.328;5.558;2024-02-21T05:42:37;7.10;99.90
7738;DHT22;29398;45.328;5.558;2024-02-21T05:43:38;7.10;99.90
7738;DHT22;29398;45.328;5.558;2024-02-21T05:44:42;7.10;99.90
7738;DHT22;29398;45.328;5.558;2024-02-21T05:45:43;7.20;99.90
7738;DHT22;29398;45.328;5.558;2024-02-21T05:46:45;7.20;99.90
7738;DHT22;29398;45.328;5.558;2024-02-21T05:47:46;7.20;99.90
7738;DHT22;29398;45.328;5.558;2024-02-21T05:48:49;7.20;99.90
7738;DHT22;29398;45.328;5.558;2024-02-21T05:49:50;7.10;99.90
7738;DHT22;29398;45.328;5.558;2024-02-21T05:50:54;7.10;99.90
7738;DHT22;29398;45.328;5.558;2024-02-21T05:51:55;7.00;99.90
7738;DHT22;29398;45.328;5.558;2024-02-21T05:52:57;7.00;99.90
7738;DHT22;29398;45.328;5.558;2024-02-21T05:53:58;7.00;99.90
7738;DHT22;29398;45.328;5.558;2024-02-21T05:54:59;7.00;99.90
7738;DHT22;29398;45.328;5.558;2024-02-21T05:56:01;6.90;99.90
7738;DHT22;29398;45.328;5.558;2024-02-21T05:57:03;6.80;99.90
7738;DHT22;29398;45.328;5.558;2024-02-21T05:58:04;6.80;99.90
7738;DHT22;29398;45.328;5.558;2024-02-21T05:59:06;6.80;99.90
7738;DHT22;29398;45.328;5.558;2024-02-21T06:00:10;6.80;99.90
7738;DHT22;29398;45.328;5.558;2024-02-21T06:01:15;6.70;99.90
7738;DHT22;29398;45.328;5.558;2024-02-21T06:02:16;6.70;99.90
7738;DHT22;29398;45.328;5.558;2024-02-21T06:03:18;6.70;99.90
7738;DHT22;29398;45.328;5.558;2024-02-21T06:04:19;6.60;99.90
7738;DHT22;29398;45.328;5.558;2024-02-21T06:05:21;6.60;99.90
7738;DHT22;29398;45.328;5.558;2024-02-21T06:06:22;6.60;99.90
7738;DHT22;29398;45.328;5.558;2024-02-21T06:07:24;6.60;99.90
7738;DHT22;29398;45.328;5.558;2024-02-21T06:08:26;6.60;99.90
7738;DHT22;29398;45.328;5.558;2024-02-21T06:09:28;6.60;99.90
7738;DHT22;29398;45.328;5.558;2024-02-21T06:10:29;6.60;99.90
7738;DHT22;29398;45.328;5.558;2024-02-21T06:11:31;6.60;99.90
7738;DHT22;29398;45.328;5.558;2024-02-21T06:12:32;6.50;99.90
7738;DHT22;29398;45.328;5.558;2024-02-21T06:13:38;6.50;99.90
7738;DHT22;29398;45.328;5.558;2024-02-21T06:14:39;6.50;99.90
7738;DHT22;29398;45.328;5.558;2024-02-21T06:15:42;6.60;99.90
7738;DHT22;29398;45.328;5.558;2024-02-21T06:16:43;6.60;99.90
7738;DHT22;29398;45.328;5.558;2024-02-21T06:17:45;6.60;99.90
7738;DHT22;29398;45.328;5.558;2024-02-21T06:18:46;6.60;99.90
7738;DHT22;29398;45.328;5.558;2024-02-21T06:19:48;6.60;99.90
7738;DHT22;29398;45.328;5.558;2024-02-21T06:20:49;6.50;99.90
7738;DHT22;29398;45.328;5.558;2024-02-21T06:21:51;6.50;99.90
7738;DHT22;29398;45.328;5.558;2024-02-21T06:22:53;6.40;99.90
7738;DHT22;29398;45.328;5.558;2024-02-21T06:23:55;6.30;99.90
7738;DHT22;29398;45.328;5.558;2024-02-21T06:24:56;6.30;99.90
7738;DHT22;29398;45.328;5.558;2024-02-21T06:25:58;6.30;99.90
7738;DHT22;29398;45.328;5.558;2024-02-21T06:26:59;6.30;99.90
7738;DHT22;29398;45.328;5.558;2024-02-21T06:28:01;6.30;99.90
7738;DHT22;29398;45.328;5.558;2024-02-21T06:29:02;6.30;99.90
7738;DHT22;29398;45.328;5.558;2024-02-21T06:30:05;6.30;99.90
7738;DHT22;29398;45.328;5.558;2024-02-21T06:31:08;6.40;99.90
7738;DHT22;29398;45.328;5.558;2024-02-21T06:32:10;6.40;99.90
7738;DHT22;29398;45.328;5.558;2024-02-21T06:33:11;6.40;99.90
7738;DHT22;29398;45.328;5.558;2024-02-21T06:34:13;6.40;99.90
7738;DHT22;29398;45.328;5.558;2024-02-21T06:35:14;6.50;99.90
7738;DHT22;29398;45.328;5.558;2024-02-21T06:36:16;6.50;99.90
7738;DHT22;29398;45.328;5.558;2024-02-21T06:37:17;6.50;99.90
7738;DHT22;29398;45.328;5.558;2024-02-21T06:38:19;6.50;99.90
7738;DHT22;29398;45.328;5.558;2024-02-21T06:39:20;6.40;99.90
7738;DHT22;29398;45.328;5.558;2024-02-21T06:40:24;6.40;99.90
7738;DHT22;29398;45.328;5.558;2024-02-21T06:41:25;6.40;99.90
7738;DHT22;29398;45.328;5.558;2024-02-21T06:42:27;6.40;99.90
7738;DHT22;29398;45.328;5.558;2024-02-21T06:43:28;6.40;99.90